Список аэропортов
Фактическая погода:

23 апреля, 12:00
Температура: +3°C (+0.1*)
Ветер: юго-западный 3 м/с
Давление: *741 мм
разорв. обл.
кучево-дождевые 210 м
облачно
слаб. ливневый дождь
снег
Время (МСК)Темп. СВетерВлажностьДавлениеОблачностьОсадки
09:00+2Ю, 4 м/с91%987 гПаоблачносл. дождь
10:00+3Ю, 4 м/с89%987 гПаоблачнодождь
11:00+3Ю, 4 м/с89%988 гПаоблачнодождь
12:00+3ЮЗ, 4 м/с89%988 гПаоблачнодождь
13:00+4ЮЗ, 3 м/с86%989 гПаоблачнодождь
14:00+4З, 3 м/с84%990 гПаоблачнодождь
15:00+5СЗ, 4 м/с83%991 гПаоблачнодождь
16:00+4СЗ, 5 м/с85%992 гПаоблачносл. дождь
17:00+4СЗ, 5 м/с83%994 гПаоблачносл. дождь
18:00+4СЗ, 5 м/с79%995 гПаоблачносл. дождь
19:00+4З, 4 м/с82%997 гПаоблачно
20:00+3З, 3 м/с91%998 гПас прояснениями
21:00+2З, 3 м/с95%999 гПас прояснениями
22:00+1З, 2 м/с96%1000 гПаясно
23:000З, 2 м/с98%1001 гПамалооблачно
24 апреля
00:000З, 3 м/с98%1002 гПамалооблачно
01:00-0З, 2 м/с98%1003 гПамалооблачно
02:00-1З, 2 м/с98%1004 гПамалооблачно
03:00-2ЮЗ, 1 м/с98%1004 гПас прояснениями
04:00-2С, 1 м/с98%1004 гПас прояснениями
05:00-3Штиль 99%1004 гПаоблачно
06:00-2ЮЗ, 1 м/с97%1005 гПамалооблачно
07:00-1ЮЗ, 1 м/с94%1005 гПаясно
08:00+2ЮВ, 2 м/с86%1006 гПамалооблачно
09:00+4СВ, 1 м/с78%1005 гПас прояснениями
10:00+7В, 2 м/с66%1005 гПамалооблачно
11:00+8В, 3 м/с58%1005 гПаясно
12:00+9В, 2 м/с54%1005 гПас прояснениями
13:00+9В, 2 м/с50%1005 гПаоблачно
14:00+10СВ, 2 м/с48%1004 гПаоблачно
15:00+10СВ, 2 м/с48%1004 гПаоблачно
16:00+10СВ, 2 м/с52%1004 гПаоблачно
17:00+9СВ, 1 м/с55%1004 гПаоблачносл. дождь
18:00+9С, 1 м/с57%1005 гПаоблачносл. дождь
19:00+7СЗ, 2 м/с73%1005 гПаоблачнодождь
20:00+6СЗ, 1 м/с82%1005 гПаоблачносл. дождь
21:00+4СЗ, 1 м/с88%1005 гПаоблачносл. дождь
22:00+4СЗ, 2 м/с94%1006 гПаоблачнодождь
23:00+4СЗ, 2 м/с97%1006 гПаоблачнодождь
25 апреля
00:00+4СЗ, 2 м/с97%1005 гПаоблачнодождь
01:00+3СЗ, 2 м/с98%1006 гПаоблачнодождь
02:00+3СЗ, 2 м/с98%1006 гПаоблачносл. дождь
03:00+3СЗ, 2 м/с98%1006 гПаоблачносл. дождь
04:00+3З, 2 м/с98%1006 гПаоблачносл. дождь
05:00+3З, 2 м/с97%1007 гПаоблачносл. дождь
06:00+3СЗ, 2 м/с96%1007 гПаоблачно
07:00+4СЗ, 3 м/с92%1008 гПаоблачно
08:00+4СЗ, 3 м/с88%1008 гПаоблачно
09:00+5СЗ, 3 м/с83%1009 гПаоблачно